createdAt,value
2022-10-26T00:01:16.041Z,80.20
2022-10-26T00:06:22.462Z,80.03
2022-10-26T00:11:24.474Z,80.89
2022-10-26T00:16:27.620Z,81.37
2022-10-26T00:21:29.040Z,81.53
2022-10-26T00:26:30.500Z,81.95
2022-10-26T00:31:32.426Z,81.28
2022-10-26T00:36:33.824Z,82.27
2022-10-26T00:41:35.229Z,82.35
2022-10-26T00:46:38.425Z,81.74
2022-10-26T00:51:44.310Z,81.23
2022-10-26T00:56:49.412Z,81.59
2022-10-26T01:01:51.832Z,81.32
2022-10-26T01:06:53.317Z,80.98
2022-10-26T01:11:54.895Z,80.74
2022-10-26T01:17:15.135Z,81.02
2022-10-26T01:22:22.218Z,79.76
2022-10-26T01:27:41.194Z,79.69
2022-10-26T01:32:51.371Z,80.24
2022-10-26T01:37:58.729Z,81.05
2022-10-26T01:43:04.513Z,80.80
2022-10-26T01:48:09.357Z,80.92
2022-10-26T01:53:15.123Z,80.23
2022-10-26T01:58:44.599Z,80.65
2022-10-26T02:09:54.588Z,81.25
2022-10-26T02:15:06.511Z,81.78
2022-10-26T02:20:13.300Z,84.60
2022-10-26T02:25:20.740Z,86.58
2022-10-26T02:30:24.076Z,85.95
2022-10-26T02:35:30.470Z,84.58
2022-10-26T02:40:32.718Z,83.59
2022-10-26T02:45:46.261Z,83.67
2022-10-26T02:51:03.725Z,82.74
2022-10-26T02:56:16.693Z,83.70
2022-10-26T03:01:18.350Z,84.02
2022-10-26T03:06:24.152Z,84.60
2022-10-26T03:11:25.553Z,84.44
2022-10-26T03:16:27.259Z,84.18
2022-10-26T03:21:28.664Z,83.40
2022-10-26T03:26:30.055Z,83.30
2022-10-26T03:31:31.482Z,83.02
2022-10-26T03:36:32.887Z,83.43
2022-10-26T03:41:34.287Z,83.03
2022-10-26T03:46:35.680Z,84.07
2022-10-26T03:51:37.115Z,83.81
2022-10-26T03:56:38.522Z,84.58
2022-10-26T04:01:40.070Z,84.19
2022-10-26T04:06:41.697Z,84.13
2022-10-26T04:11:43.155Z,84.50
2022-10-26T04:16:44.552Z,83.26
2022-10-26T04:21:45.947Z,83.42
2022-10-26T04:26:47.354Z,84.04
2022-10-26T04:31:48.746Z,83.35
2022-10-26T04:36:50.134Z,82.81
2022-10-26T04:41:51.582Z,82.69
2022-10-26T04:46:52.982Z,82.46
2022-10-26T04:51:54.357Z,82.99
2022-10-26T04:56:55.732Z,82.69
2022-10-26T05:01:57.369Z,82.69
2022-10-26T05:06:58.873Z,82.78
2022-10-26T05:12:00.260Z,82.77
2022-10-26T05:17:01.730Z,81.38
2022-10-26T05:22:03.342Z,80.74
2022-10-26T05:27:04.793Z,80.45
2022-10-26T05:32:06.191Z,81.20
2022-10-26T05:37:07.588Z,81.84
2022-10-26T05:42:09.241Z,82.46
2022-10-26T05:47:10.662Z,82.20
2022-10-26T05:52:12.058Z,82.22
2022-10-26T05:57:13.914Z,83.15
2022-10-26T06:02:33.065Z,82.45
2022-10-26T06:07:34.778Z,83.27
2022-10-26T06:12:36.470Z,83.76
2022-10-26T06:17:55.168Z,83.84
2022-10-26T06:23:15.060Z,83.44
2022-10-26T06:28:35.081Z,82.05
2022-10-26T06:33:36.517Z,80.51
2022-10-26T06:38:39.866Z,80.50
2022-10-26T06:43:41.807Z,80.76
2022-10-26T06:48:59.462Z,80.06
2022-10-26T06:54:14.029Z,80.30
2022-10-26T06:59:25.448Z,81.59
2022-10-26T07:04:26.859Z,81.86
2022-10-26T07:09:28.265Z,83.18
2022-10-26T07:14:29.675Z,83.43
2022-10-26T07:19:31.399Z,83.79
2022-10-26T07:24:32.833Z,84.29
2022-10-26T07:29:34.254Z,85.23
2022-10-26T07:34:35.655Z,85.50
2022-10-26T07:39:37.054Z,86.28
2022-10-26T07:44:38.453Z,86.26
2022-10-26T07:49:40.077Z,87.11
2022-10-26T07:54:41.470Z,87.59
2022-10-26T07:59:42.858Z,87.42
2022-10-26T08:04:44.289Z,87.48
2022-10-26T08:09:45.684Z,87.86
2022-10-26T08:14:47.344Z,85.42
2022-10-26T08:19:48.792Z,82.38
2022-10-26T08:24:50.197Z,80.52
2022-10-26T08:29:51.656Z,81.04
2022-10-26T08:34:53.035Z,80.12
2022-10-26T08:39:55.893Z,80.53
2022-10-26T08:45:12.581Z,80.41
2022-10-26T08:50:27.395Z,81.29
2022-10-26T09:00:51.621Z,82.34
2022-10-26T09:06:08.854Z,82.00
2022-10-26T09:11:13.291Z,83.04
2022-10-26T09:16:31.508Z,83.64
2022-10-26T09:21:59.983Z,82.09
2022-10-26T09:27:21.591Z,82.36
2022-10-26T09:32:41.203Z,78.56
2022-10-26T09:37:55.128Z,77.38
2022-10-26T09:43:26.514Z,75.14
2022-10-26T09:48:36.672Z,75.21
2022-10-26T09:53:38.059Z,74.22
2022-10-26T09:59:02.169Z,73.69
2022-10-26T10:04:15.398Z,73.85
2022-10-26T10:09:19.238Z,72.86
2022-10-26T10:14:55.402Z,73.16
2022-10-26T10:20:07.601Z,71.87
2022-10-26T10:25:23.561Z,68.99
2022-10-26T10:30:33.517Z,63.30
2022-10-26T10:35:35.517Z,57.00
2022-10-26T10:40:37.034Z,49.26
2022-10-26T10:45:38.843Z,46.61
2022-10-26T10:51:05.260Z,47.92
2022-10-26T10:56:25.123Z,48.90
2022-10-26T11:01:32.416Z,47.54
2022-10-26T11:06:37.614Z,42.51
2022-10-26T11:11:45.561Z,37.83
2022-10-26T11:16:51.675Z,32.83
2022-10-26T11:21:56.507Z,30.37
2022-10-26T11:27:05.039Z,27.59
2022-10-26T11:32:16.561Z,25.78
2022-10-26T11:37:28.740Z,25.50
2022-10-26T11:42:32.912Z,24.76
2022-10-26T11:47:42.584Z,24.72
2022-10-26T11:53:03.250Z,23.73
2022-10-26T11:58:05.327Z,23.65
2022-10-26T12:03:13.874Z,22.66
2022-10-26T12:08:28.005Z,22.37
2022-10-26T12:13:36.060Z,21.92
2022-10-26T12:19:01.025Z,22.20
2022-10-26T12:24:22.348Z,22.02
2022-10-26T12:29:29.232Z,23.32
2022-10-26T12:34:30.591Z,25.55
2022-10-26T12:39:35.990Z,24.93
2022-10-26T12:44:43.474Z,24.26
2022-10-26T12:50:06.503Z,25.13
2022-10-26T12:55:29.145Z,27.17
2022-10-26T13:00:33.282Z,25.82
2022-10-26T13:05:59.439Z,25.99
2022-10-26T13:11:16.218Z,26.78
2022-10-26T13:16:17.775Z,26.32
2022-10-26T13:21:22.175Z,28.26
2022-10-26T13:26:26.022Z,28.91
2022-10-26T13:31:30.358Z,30.92
2022-10-26T13:36:50.494Z,32.26
2022-10-26T13:41:54.633Z,33.04
2022-10-26T13:47:03.714Z,34.37
2022-10-26T13:52:12.356Z,35.91
2022-10-26T13:57:22.713Z,36.01
2022-10-26T14:02:28.751Z,37.03
2022-10-26T14:07:44.755Z,36.31
2022-10-26T14:12:46.309Z,38.32
2022-10-26T14:17:51.366Z,37.19
2022-10-26T14:22:53.053Z,38.37
2022-10-26T14:27:54.486Z,39.39
2022-10-26T14:32:56.600Z,40.63
2022-10-26T14:38:02.793Z,41.91
2022-10-26T14:43:05.590Z,42.70
2022-10-26T14:48:07.495Z,42.83
2022-10-26T14:53:15.605Z,43.85
2022-10-26T15:03:35.051Z,46.79
2022-10-26T15:08:52.652Z,47.17
2022-10-26T15:14:00.230Z,48.89
2022-10-26T15:19:09.561Z,49.34
2022-10-26T15:24:30.170Z,50.60
2022-10-26T15:29:38.525Z,50.55
2022-10-26T15:34:40.002Z,51.48
2022-10-26T15:39:41.390Z,52.12
2022-10-26T15:44:42.802Z,52.79
2022-10-26T15:49:44.225Z,54.05
2022-10-26T15:54:46.194Z,55.36
2022-10-26T15:59:47.586Z,56.17
2022-10-26T16:04:48.978Z,56.22
2022-10-26T16:09:50.458Z,57.43
2022-10-26T16:15:05.164Z,58.84
2022-10-26T16:20:12.612Z,60.14
2022-10-26T16:25:22.226Z,61.21
2022-10-26T16:30:25.914Z,61.22
2022-10-26T16:35:29.637Z,62.48
2022-10-26T16:40:31.054Z,63.07
2022-10-26T16:45:32.440Z,63.61
2022-10-26T16:50:36.309Z,63.63
2022-10-26T16:55:38.034Z,64.91
2022-10-26T17:00:39.464Z,65.18
2022-10-26T17:05:40.848Z,64.84
2022-10-26T17:10:42.233Z,65.63
2022-10-26T17:15:43.644Z,66.71
2022-10-26T17:20:51.366Z,66.60
2022-10-26T17:25:52.864Z,68.24
2022-10-26T17:31:07.594Z,67.98
2022-10-26T17:36:10.565Z,67.24
2022-10-26T17:41:14.199Z,66.88
2022-10-26T17:46:21.201Z,67.05
2022-10-26T17:51:22.709Z,67.74
2022-10-26T17:56:29.709Z,67.39
2022-10-26T18:01:31.995Z,67.75
2022-10-26T18:06:34.006Z,68.35
2022-10-26T18:11:35.743Z,67.59
2022-10-26T18:16:37.118Z,66.88
2022-10-26T18:21:38.512Z,66.63
2022-10-26T18:26:39.935Z,67.18
2022-10-26T18:31:43.601Z,66.73
2022-10-26T18:36:44.998Z,66.93
2022-10-26T18:41:46.397Z,66.63
2022-10-26T18:46:47.800Z,66.85
2022-10-26T18:51:49.197Z,66.48
2022-10-26T18:56:50.602Z,66.79
2022-10-26T19:01:52.448Z,66.80
2022-10-26T19:06:53.938Z,67.15
2022-10-26T19:11:57.958Z,67.54
2022-10-26T19:17:01.639Z,67.27
2022-10-26T19:22:03.491Z,67.45
2022-10-26T19:27:05.022Z,67.52
2022-10-26T19:32:06.445Z,68.01
2022-10-26T19:37:07.875Z,67.67
2022-10-26T19:42:09.259Z,68.39
2022-10-26T19:47:10.683Z,68.43
2022-10-26T19:52:12.087Z,68.26
2022-10-26T19:57:13.533Z,68.41
2022-10-26T20:02:14.931Z,68.31
2022-10-26T20:07:16.368Z,68.96
2022-10-26T20:12:17.751Z,68.38
2022-10-26T20:17:19.134Z,68.18
2022-10-26T20:22:20.524Z,68.80
2022-10-26T20:27:21.930Z,69.46
2022-10-26T20:32:24.609Z,69.61
2022-10-26T20:37:26.462Z,69.78
2022-10-26T20:42:28.510Z,69.56
2022-10-26T20:47:30.833Z,69.66
2022-10-26T20:52:50.798Z,69.38
2022-10-26T20:57:58.484Z,69.35
2022-10-26T21:02:59.854Z,69.68
2022-10-26T21:08:01.260Z,69.87
2022-10-26T21:13:02.772Z,69.83
2022-10-26T21:18:04.332Z,69.99
2022-10-26T21:23:05.702Z,69.70
2022-10-26T21:28:07.086Z,70.25
2022-10-26T21:33:08.465Z,70.83
2022-10-26T21:38:09.859Z,70.79
2022-10-26T21:43:11.264Z,70.38
2022-10-26T21:48:12.701Z,71.17
2022-10-26T21:53:14.081Z,71.48
2022-10-26T21:58:18.804Z,72.18
2022-10-26T22:03:20.223Z,72.06
2022-10-26T22:08:21.728Z,71.69
2022-10-26T22:13:23.337Z,71.43
2022-10-26T22:18:24.945Z,71.41
2022-10-26T22:23:26.490Z,70.93
2022-10-26T22:28:27.887Z,71.27
2022-10-26T22:33:29.322Z,71.34
2022-10-26T22:38:30.795Z,71.83
2022-10-26T22:43:32.433Z,72.56
2022-10-26T22:48:34.914Z,72.99
2022-10-26T22:53:36.943Z,72.55
2022-10-26T22:58:39.139Z,72.01
2022-10-26T23:03:40.851Z,72.79
2022-10-26T23:08:42.414Z,72.54
2022-10-26T23:13:44.230Z,73.01
2022-10-26T23:18:46.646Z,72.73
2022-10-26T23:23:48.318Z,73.03
2022-10-26T23:28:50.279Z,72.96
2022-10-26T23:33:53.243Z,73.02
2022-10-26T23:38:54.645Z,73.37
2022-10-26T23:43:56.032Z,73.34
2022-10-26T23:48:57.422Z,72.95
2022-10-26T23:53:58.806Z,72.49
2022-10-26T23:59:00.306Z,71.84
